CheckWX is a tool to help pilots better visualize weather data.  It is not intended as a substitute for an official pre-flight weather briefing.

09:42:49 UTC

KHIE TAF
Mount Washington Regional Airport
Whitefield, New Hampshire, USA
KHIE 180854Z 1809/1906 29011KT 6SM -SHRA BKN015 FM182200 29012G23KT P6SM BKN040

Oct-18@
09:00 UTC

Oct-18 @ 09:00 UTC

Oct-18@
22:00 UTC

Oct-18 @ 22:00 UTC

KHIE 180854Z 1809/1906 29011KT 6SM -SHRA BKN015
Wind
  • 290° at 11 KTS
Conditions
Light Rain
Cloud Levels
  • Broken at 1,500' AGL

Oct-18@
22:00 UTC

Oct-18 @ 22:00 UTC

Oct-19@
06:00 UTC

Oct-19 @ 06:00 UTC

FM182200 29012G23KT P6SM BKN040

From

From Standard forecast or significant change

Wind
  • 290° at 12 KTS
  • {Gusting to 23 KTS
Cloud Levels
  • Broken at 4,000' AGL